Time;durP1;ratioP1;P1;durP2;ratioP2;P2;SDS_P1;SDS_P2;PMS_P1;PMS_P2;Temp;Humidity;BMP_temperature;BMP_pressure;BME280_temperature;BME280_humidity;BME280_pressure;Samples;Min_cycle;Max_cycle;Signal;HPM_P1;HPM_P2
2021/05/23 00:00:14;;;;;;;26.85;9.65;;;;;;;10.95;63.11;98111.66;4964120;28;20092;-71
2021/05/23 00:02:41;;;;;;;25.67;9.15;;;;;;;10.96;63.15;98113.28;4963393;28;20034;-72
2021/05/23 00:05:09;;;;;;;23.48;9.55;;;;;;;10.92;63.19;98109.53;4952239;28;20496;-71
2021/05/23 00:07:42;;;;;;;23.75;8.65;;;;;;;10.92;62.78;98125.19;4964714;28;20027;-70
2021/05/23 00:10:08;;;;;;;24.45;8.98;;;;;;;10.91;63.05;98121.63;4965058;28;20045;-71
2021/05/23 00:12:33;;;;;;;18.05;8.25;;;;;;;10.92;63.33;98119.69;4956569;28;20023;-70
2021/05/23 00:14:59;;;;;;;21.23;8.13;;;;;;;10.94;62.60;98115.50;4956326;28;20035;-71
2021/05/23 00:17:24;;;;;;;22.40;8.40;;;;;;;10.93;63.02;98121.31;4961560;28;20753;-70
2021/05/23 00:19:49;;;;;;;18.13;6.95;;;;;;;10.89;62.94;98129.34;4965081;28;20504;-71
2021/05/23 00:22:16;;;;;;;21.35;7.38;;;;;;;10.88;63.29;98122.22;4965291;28;20039;-69
2021/05/23 00:24:42;;;;;;;19.58;8.40;;;;;;;10.85;63.00;98117.34;4963839;28;20035;-69
2021/05/23 00:27:07;;;;;;;19.35;6.75;;;;;;;10.84;62.73;98116.53;4966055;28;20030;-69
2021/05/23 00:29:33;;;;;;;20.02;7.13;;;;;;;10.78;63.42;98119.72;4965445;28;20073;-69
2021/05/23 00:31:59;;;;;;;18.33;7.40;;;;;;;10.75;63.64;98121.13;4971360;28;20084;-69
2021/05/23 00:34:25;;;;;;;14.65;6.47;;;;;;;10.75;63.09;98112.88;4973572;28;20034;-69
2021/05/23 00:36:53;;;;;;;17.85;6.68;;;;;;;10.72;63.27;98102.53;4973592;28;20046;-70
2021/05/23 00:39:18;;;;;;;19.88;6.60;;;;;;;10.74;63.07;98111.25;4974081;28;20113;-70
2021/05/23 00:41:43;;;;;;;16.55;6.88;;;;;;;10.72;63.39;98117.06;4974027;28;20454;-70
2021/05/23 00:44:09;;;;;;;17.05;5.28;;;;;;;10.71;63.20;98106.41;4973422;28;20031;-69
2021/05/23 00:46:34;;;;;;;14.27;5.07;;;;;;;10.69;64.08;98103.97;4974330;28;20451;-70
2021/05/23 00:48:59;;;;;;;15.13;5.72;;;;;;;10.70;63.59;98104.75;4973942;28;20023;-70
2021/05/23 00:51:25;;;;;;;17.88;5.30;;;;;;;10.70;64.23;98105.59;4972390;28;20132;-70
2021/05/23 00:53:50;;;;;;;15.57;5.43;;;;;;;10.67;64.01;98095.22;4973175;28;20026;-70
2021/05/23 00:56:18;;;;;;;9.88;4.93;;;;;;;10.67;63.50;98102.63;4973761;28;20027;-70
2021/05/23 00:58:45;;;;;;;13.05;5.20;;;;;;;10.68;63.87;98105.09;4981153;28;20027;-70
2021/05/23 01:01:12;;;;;;;13.88;5.05;;;;;;;10.70;63.42;98099.28;4970859;28;20030;-70
2021/05/23 01:03:53;;;;;;;15.25;5.35;;;;;;;10.74;64.27;98102.25;4973266;28;20112;-70
2021/05/23 01:06:18;;;;;;;11.80;5.13;;;;;;;10.78;64.03;98109.53;4977084;28;20043;-70
2021/05/23 01:08:44;;;;;;;11.70;5.18;;;;;;;10.78;63.68;98106.00;4976708;28;20034;-69
2021/05/23 01:11:15;;;;;;;11.80;4.70;;;;;;;10.79;63.54;98108.41;4979905;28;20040;-69
2021/05/23 01:13:46;;;;;;;12.20;5.00;;;;;;;10.77;63.92;98099.69;4979861;28;20022;-69
2021/05/23 01:16:16;;;;;;;16.55;5.03;;;;;;;10.78;64.43;98108.75;4979364;28;20380;-69
2021/05/23 01:18:49;;;;;;;10.13;4.60;;;;;;;10.78;63.68;98115.03;4979685;28;20042;-70
2021/05/23 01:21:18;;;;;;;13.50;5.93;;;;;;;10.79;64.11;98110.38;4979585;28;20031;-70
2021/05/23 01:23:52;;;;;;;10.95;4.78;;;;;;;10.76;63.10;98111.78;4979390;28;20583;-70
2021/05/23 01:26:18;;;;;;;11.43;4.70;;;;;;;10.72;63.67;98103.34;4977099;28;20062;-70
2021/05/23 01:28:49;;;;;;;10.65;4.82;;;;;;;10.71;63.90;98104.47;4979897;28;20022;-70
2021/05/23 01:31:19;;;;;;;12.48;4.22;;;;;;;10.72;64.15;98102.53;4978503;28;20026;-69
2021/05/23 01:33:51;;;;;;;;;;;;;;;10.70;64.43;98108.34;4978523;28;20026;-69
2021/05/23 01:36:17;;;;;;;7.40;3.97;;;;;;;10.69;63.92;98106.72;4977236;28;19918;-72
2021/05/23 01:38:44;;;;;;;9.00;3.97;;;;;;;10.69;64.24;98103.13;4974999;28;20033;-69
2021/05/23 01:41:11;;;;;;;8.75;4.15;;;;;;;10.64;64.48;98116.94;4973103;28;20031;-70
2021/05/23 01:43:37;;;;;;;8.02;4.10;;;;;;;10.64;64.56;98117.78;4976950;28;20121;-72
2021/05/23 01:46:05;;;;;;;11.65;4.80;;;;;;;10.61;63.93;98112.91;4979425;28;20026;-71
2021/05/23 01:48:33;;;;;;;9.10;4.57;;;;;;;10.61;63.72;98117.56;4976227;28;20072;-71
2021/05/23 01:50:59;;;;;;;11.30;4.60;;;;;;;10.56;64.69;98123.97;4981117;28;20530;-71
2021/05/23 01:53:24;;;;;;;11.07;4.60;;;;;;;10.54;64.26;98124.28;4977137;28;20062;-71
2021/05/23 01:55:50;;;;;;;7.13;3.95;;;;;;;10.55;63.91;98114.13;4979068;28;20886;-70
2021/05/23 01:58:15;;;;;;;10.93;4.63;;;;;;;10.55;63.91;98114.94;4980177;28;20030;-71
2021/05/23 02:00:47;;;;;;;12.95;5.10;;;;;;;10.56;64.68;98111.09;4977223;28;20030;-71
2021/05/23 02:03:16;;;;;;;9.93;4.22;;;;;;;10.54;64.56;98112.50;4977404;28;20034;-71
2021/05/23 02:05:44;;;;;;;12.52;4.93;;;;;;;10.52;64.72;98111.97;4978730;28;20027;-71
2021/05/23 02:08:15;;;;;;;12.18;5.07;;;;;;;10.50;64.31;98108.72;4976271;28;20385;-71
2021/05/23 02:10:41;;;;;;;14.90;6.88;;;;;;;10.49;64.17;98109.84;4978108;28;20058;-71
2021/05/23 02:13:07;;;;;;;12.02;5.07;;;;;;;10.47;64.04;98107.44;4973123;28;20074;-71
2021/05/23 02:15:33;;;;;;;10.93;4.55;;;;;;;10.53;64.19;98105.38;4972125;28;20039;-71
2021/05/23 02:17:59;;;;;;;11.73;4.47;;;;;;;10.54;64.56;98117.97;4971732;28;20081;-71
2021/05/23 02:20:29;;;;;;;12.18;4.63;;;;;;;10.53;64.38;98113.59;4971568;28;20114;-70
2021/05/23 02:22:57;;;;;;;15.88;4.93;;;;;;;10.54;64.10;98115.22;4972734;28;20353;-71
2021/05/23 02:25:24;;;;;;;14.75;5.15;;;;;;;10.51;64.25;98122.16;4971513;28;20042;-70
2021/05/23 02:27:53;;;;;;;18.98;6.63;;;;;;;10.51;64.39;98124.06;4975219;28;20373;-71
2021/05/23 02:30:21;;;;;;;12.73;5.07;;;;;;;10.50;64.30;98122.44;4976456;28;20030;-70
2021/05/23 02:32:47;;;;;;;11.95;4.78;;;;;;;10.47;64.36;98120.31;4976063;28;20113;-71
2021/05/23 02:35:14;;;;;;;10.80;4.82;;;;;;;10.44;64.65;98121.75;4976292;28;20026;-71
2021/05/23 02:37:40;;;;;;;15.15;5.20;;;;;;;10.43;64.75;98125.59;4975996;28;20104;-71
2021/05/23 02:40:09;;;;;;;13.07;4.70;;;;;;;10.40;64.34;98126.19;4975759;28;20057;-71
2021/05/23 02:42:35;;;;;;;13.20;4.68;;;;;;;10.40;64.66;98126.19;4975968;28;20026;-70
2021/05/23 02:45:01;;;;;;;9.43;4.50;;;;;;;10.40;64.79;98118.78;4975974;28;20101;-72
2021/05/23 02:47:26;;;;;;;15.18;6.20;;;;;;;10.42;64.97;98129.44;4975870;28;20081;-70
2021/05/23 02:49:52;;;;;;;16.60;6.47;;;;;;;10.43;64.75;98133.81;4976396;28;20031;-70
2021/05/23 02:52:18;;;;;;;14.63;6.70;;;;;;;10.41;65.12;98131.38;4976038;28;20031;-70
2021/05/23 02:54:43;;;;;;;14.90;7.32;;;;;;;10.41;64.57;98125.09;4975910;28;20085;-71
2021/05/23 02:57:08;;;;;;;15.80;7.15;;;;;;;10.41;64.73;98125.09;4975088;28;20102;-70
2021/05/23 02:59:34;;;;;;;20.17;8.25;;;;;;;10.38;65.14;98121.00;4976361;28;20046;-71
2021/05/23 03:01:59;;;;;;;16.15;7.78;;;;;;;10.38;65.16;98129.22;4975765;28;20392;-71
2021/05/23 03:04:24;;;;;;;17.80;8.10;;;;;;;10.35;65.08;98127.09;4974187;28;20026;-71
2021/05/23 03:06:50;;;;;;;16.65;7.68;;;;;;;10.32;64.79;98130.44;4975778;28;20019;-71
2021/05/23 03:09:16;;;;;;;17.45;8.15;;;;;;;10.30;65.63;98129.91;4974832;28;20022;-71
2021/05/23 03:11:43;;;;;;;14.35;7.18;;;;;;;10.27;65.11;98134.06;4975888;28;20034;-70
2021/05/23 03:14:09;;;;;;;16.83;7.35;;;;;;;10.27;65.10;98136.00;4975312;28;20055;-70
2021/05/23 03:16:35;;;;;;;15.30;7.03;;;;;;;10.33;65.21;98131.22;4975705;28;20076;-71
2021/05/23 03:19:01;;;;;;;15.93;7.43;;;;;;;10.34;65.45;98141.91;4974777;28;20023;-70
2021/05/23 03:21:26;;;;;;;23.13;8.60;;;;;;;10.32;65.13;98127.69;4974216;28;20030;-71
2021/05/23 03:23:51;;;;;;;17.90;7.40;;;;;;;10.33;65.31;98128.50;4975687;28;20376;-70
2021/05/23 03:26:17;;;;;;;18.48;8.30;;;;;;;10.31;65.17;98137.03;4974333;28;20061;-71
2021/05/23 03:28:42;;;;;;;15.70;7.28;;;;;;;10.34;65.57;98138.34;4975439;28;20030;-70
2021/05/23 03:31:07;;;;;;;16.48;7.88;;;;;;;10.34;65.44;98130.94;4973756;28;20026;-71
2021/05/23 03:33:33;;;;;;;18.30;7.65;;;;;;;10.40;65.65;98137.97;4974788;28;20105;-71
2021/05/23 03:35:58;;;;;;;17.95;8.13;;;;;;;10.47;65.14;98132.09;4974701;28;20038;-71
2021/05/23 03:38:23;;;;;;;20.92;8.52;;;;;;;10.55;65.43;98141.53;4973351;28;20106;-71
2021/05/23 03:40:49;;;;;;;17.85;8.95;;;;;;;10.61;65.62;98142.25;4975337;28;20026;-70
2021/05/23 03:43:14;;;;;;;19.13;8.55;;;;;;;10.61;65.11;98134.00;4974193;28;20392;-70
2021/05/23 03:45:39;;;;;;;20.48;8.98;;;;;;;10.63;65.54;98142.75;4974629;28;20034;-70
2021/05/23 03:48:05;;;;;;;16.23;8.93;;;;;;;10.64;65.63;98128.75;4974610;28;20113;-70
2021/05/23 03:50:31;;;;;;;23.42;9.02;;;;;;;10.67;64.99;98141.84;4975233;28;20110;-71
2021/05/23 03:52:57;;;;;;;17.65;8.20;;;;;;;10.68;65.41;98138.00;4974877;28;20062;-71
2021/05/23 03:55:24;;;;;;;17.45;7.78;;;;;;;10.70;65.24;98137.69;4974313;28;20117;-71
2021/05/23 03:57:50;;;;;;;17.88;7.38;;;;;;;10.73;65.52;98137.06;4974415;28;20027;-70
2021/05/23 04:00:18;;;;;;;14.20;6.97;;;;;;;10.75;65.23;98134.84;4974239;28;20038;-71
2021/05/23 04:02:51;;;;;;;14.38;6.68;;;;;;;10.81;65.23;98135.53;4973739;28;20473;-70
2021/05/23 04:05:17;;;;;;;12.85;5.88;;;;;;;10.86;65.30;98143.66;4974545;28;20038;-70
2021/05/23 04:07:43;;;;;;;15.30;6.25;;;;;;;10.92;64.65;98147.94;4974100;28;20030;-71
2021/05/23 04:10:10;;;;;;;14.18;5.63;;;;;;;11.04;65.14;98149.34;4973919;28;20034;-71
2021/05/23 04:12:40;;;;;;;11.55;5.32;;;;;;;11.12;65.24;98151.38;4972317;28;20070;-71
2021/05/23 04:15:07;;;;;;;12.35;5.25;;;;;;;11.17;64.90;98157.56;4973825;28;20081;-71
2021/05/23 04:17:33;;;;;;;10.93;4.93;;;;;;;11.22;65.37;98153.09;4974568;28;20027;-71
2021/05/23 04:19:58;;;;;;;11.02;4.93;;;;;;;11.23;65.30;98147.28;4974471;28;20073;-70
2021/05/23 04:22:24;;;;;;;10.88;4.93;;;;;;;11.29;64.82;98145.25;4974318;28;20027;-71
2021/05/23 04:24:49;;;;;;;14.95;4.80;;;;;;;11.35;65.14;98146.75;4974116;28;20023;-71
2021/05/23 04:27:15;;;;;;;12.45;4.75;;;;;;;11.40;65.09;98154.88;4972368;28;20484;-70
2021/05/23 04:29:40;;;;;;;12.95;5.00;;;;;;;11.47;64.96;98151.69;4973092;28;20109;-71
2021/05/23 04:32:06;;;;;;;14.40;5.95;;;;;;;11.52;64.73;98143.34;4973345;28;20065;-71
2021/05/23 04:34:35;;;;;;;15.00;6.93;;;;;;;11.59;64.90;98151.97;4974028;28;20666;-71
2021/05/23 04:37:00;;;;;;;14.93;6.35;;;;;;;11.66;64.85;98150.72;4973596;28;20070;-71
2021/05/23 04:39:26;;;;;;;23.33;7.15;;;;;;;11.73;64.64;98151.91;4973794;28;20118;-70
2021/05/23 04:41:51;;;;;;;17.77;7.65;;;;;;;11.81;64.80;98146.81;4973631;28;20023;-71
2021/05/23 04:44:16;;;;;;;20.33;6.57;;;;;;;11.86;64.56;98152.97;4973643;28;20034;-71
2021/05/23 04:46:42;;;;;;;21.83;7.13;;;;;;;11.91;64.04;98146.53;4973966;28;20093;-71
2021/05/23 04:49:07;;;;;;;18.58;6.45;;;;;;;11.96;64.51;98151.91;4973514;28;20031;-71
2021/05/23 04:51:32;;;;;;;21.08;7.10;;;;;;;12.01;63.72;98151.03;4973697;28;20022;-71
2021/05/23 04:53:58;;;;;;;23.30;7.35;;;;;;;12.03;63.65;98162.47;4973803;28;20109;-70
2021/05/23 04:56:23;;;;;;;22.42;7.90;;;;;;;12.03;63.26;98155.06;4972136;28;20038;-70
2021/05/23 04:58:49;;;;;;;27.00;8.18;;;;;;;12.06;64.07;98159.94;4973796;28;20031;-71
2021/05/23 05:01:14;;;;;;;29.67;9.82;;;;;;;12.13;64.20;98153.97;4973049;28;20034;-71
2021/05/23 05:03:40;;;;;;;33.30;9.75;;;;;;;12.20;63.84;98156.31;4973695;28;20061;-70
2021/05/23 05:06:05;;;;;;;32.75;11.48;;;;;;;12.28;63.19;98157.47;4973316;28;20034;-70
2021/05/23 05:08:30;;;;;;;32.28;9.60;;;;;;;12.36;63.53;98148.47;4965849;28;20090;-70
2021/05/23 05:10:56;;;;;;;33.42;10.23;;;;;;;12.46;63.34;98159.19;4973373;28;20023;-70
2021/05/23 05:13:21;;;;;;;32.92;10.40;;;;;;;12.54;63.24;98157.63;4973137;28;20034;-70
2021/05/23 05:15:47;;;;;;;27.90;8.88;;;;;;;12.62;63.46;98162.34;4973132;28;20034;-69
2021/05/23 05:18:12;;;;;;;27.52;9.43;;;;;;;12.69;63.08;98158.31;4973295;28;20027;-70
2021/05/23 05:20:38;;;;;;;25.17;8.52;;;;;;;12.73;62.86;98162.88;4973350;28;20389;-70
2021/05/23 05:23:04;;;;;;;23.30;7.65;;;;;;;12.73;62.81;98153.78;4973001;28;20023;-70
2021/05/23 05:25:29;;;;;;;27.40;8.38;;;;;;;12.73;62.76;98154.63;4973053;28;20022;-69
2021/05/23 05:27:55;;;;;;;22.50;6.90;;;;;;;12.80;62.98;98156.91;4976732;28;20027;-70
2021/05/23 05:30:20;;;;;;;20.35;7.18;;;;;;;12.86;62.81;98158.38;4980833;28;20034;-69
2021/05/23 05:32:46;;;;;;;13.52;6.18;;;;;;;12.94;62.47;98165.03;4979378;28;20041;-70
2021/05/23 05:35:11;;;;;;;17.25;7.15;;;;;;;13.01;62.84;98167.34;4980743;28;20537;-69
2021/05/23 05:37:37;;;;;;;12.57;4.97;;;;;;;13.11;62.34;98175.28;4982657;28;20034;-70
2021/05/23 05:40:03;;;;;;;16.42;6.18;;;;;;;13.13;61.94;98172.22;4980375;28;20034;-70
2021/05/23 05:42:29;;;;;;;10.70;4.43;;;;;;;13.14;61.68;98180.16;4981881;28;20018;-69
2021/05/23 05:44:54;;;;;;;14.02;5.35;;;;;;;13.18;61.67;98172.88;4979629;28;20113;-70
2021/05/23 05:47:20;;;;;;;16.38;5.65;;;;;;;13.24;61.93;98176.31;4981081;28;20023;-70
2021/05/23 05:49:45;;;;;;;14.05;4.50;;;;;;;13.31;61.62;98175.81;4981133;28;20035;-70
2021/05/23 05:52:10;;;;;;;10.38;3.85;;;;;;;13.38;61.58;98174.19;4980459;28;20404;-70
2021/05/23 05:54:36;;;;;;;11.10;4.45;;;;;;;13.47;61.42;98173.44;4975880;28;20125;-70
2021/05/23 05:57:01;;;;;;;13.88;4.65;;;;;;;13.50;60.85;98173.59;4972489;28;20034;-69
2021/05/23 05:59:27;;;;;;;17.67;5.35;;;;;;;13.54;60.83;98168.25;4972527;28;20073;-70
2021/05/23 06:01:52;;;;;;;14.65;5.07;;;;;;;13.55;60.57;98173.44;4971414;28;20034;-69
2021/05/23 06:04:18;;;;;;;13.60;4.35;;;;;;;13.61;60.34;98167.78;4971909;28;20031;-70
2021/05/23 06:06:43;;;;;;;15.50;4.97;;;;;;;13.68;60.57;98171.66;4972050;28;20469;-69
2021/05/23 06:09:08;;;;;;;12.23;4.43;;;;;;;13.72;59.88;98179.28;4972288;28;20151;-69
2021/05/23 06:11:35;;;;;;;13.70;4.88;;;;;;;13.77;59.68;98182.69;4972667;28;20030;-70
2021/05/23 06:14:00;;;;;;;15.73;5.15;;;;;;;13.81;59.37;98185.59;4971700;28;20023;-70
2021/05/23 06:16:26;;;;;;;14.23;4.97;;;;;;;13.87;59.19;98189.00;4979931;28;20085;-70
2021/05/23 06:18:51;;;;;;;13.88;4.00;;;;;;;13.95;59.77;98185.44;4979938;28;20030;-70
2021/05/23 06:21:17;;;;;;;13.95;4.88;;;;;;;14.09;59.82;98185.25;4976476;28;20058;-70
2021/05/23 06:23:42;;;;;;;16.70;5.43;;;;;;;14.22;59.56;98192.53;4975831;28;20039;-70
2021/05/23 06:26:13;;;;;;;14.02;4.78;;;;;;;14.32;59.58;98187.84;4971216;28;20389;-69
2021/05/23 06:28:39;;;;;;;13.95;5.75;;;;;;;14.38;59.12;98201.13;4974182;28;20031;-70
2021/05/23 06:31:04;;;;;;;18.95;6.15;;;;;;;14.44;58.91;98188.78;4970892;28;20086;-70
2021/05/23 06:33:29;;;;;;;17.40;5.68;;;;;;;14.52;58.65;98191.84;4971160;28;20469;-69
2021/05/23 06:35:55;;;;;;;15.95;6.10;;;;;;;14.57;58.36;98200.75;4971816;28;20401;-70
2021/05/23 06:38:20;;;;;;;18.10;5.40;;;;;;;14.64;58.28;98191.97;4970147;28;20493;-70
2021/05/23 06:40:45;;;;;;;13.13;5.40;;;;;;;14.70;58.13;98190.66;4972106;28;20037;-71
2021/05/23 06:43:11;;;;;;;13.07;4.93;;;;;;;14.71;57.05;98197.00;4971347;28;20477;-70
2021/05/23 06:45:36;;;;;;;16.42;5.05;;;;;;;14.75;58.07;98206.25;4975884;28;20109;-70
2021/05/23 06:48:03;;;;;;;14.13;4.32;;;;;;;14.84;57.52;98207.03;4975301;28;20037;-70
2021/05/23 06:50:29;;;;;;;12.15;3.97;;;;;;;14.90;57.37;98204.88;4971667;28;20030;-70
2021/05/23 06:52:54;;;;;;;12.35;4.32;;;;;;;14.94;56.52;98196.75;4971644;28;20106;-70
2021/05/23 06:55:19;;;;;;;12.25;4.22;;;;;;;15.00;57.11;98196.25;4975030;28;20054;-70
2021/05/23 06:57:45;;;;;;;16.25;5.63;;;;;;;15.06;56.23;98199.63;4978336;28;20073;-71
2021/05/23 07:00:11;;;;;;;10.93;4.22;;;;;;;15.10;56.27;98199.75;4976374;28;20039;-70
2021/05/23 07:02:37;;;;;;;11.80;4.00;;;;;;;15.21;56.85;98205.72;4971875;28;20616;-71
2021/05/23 07:05:03;;;;;;;12.23;6.28;;;;;;;15.30;56.87;98207.28;4971873;28;20124;-70
2021/05/23 07:07:29;;;;;;;13.40;6.18;;;;;;;15.40;56.28;98210.81;4971987;28;20031;-71
2021/05/23 07:09:54;;;;;;;12.32;5.00;;;;;;;15.44;56.12;98207.03;4971489;28;20078;-71
2021/05/23 07:12:20;;;;;;;10.23;4.22;;;;;;;15.48;55.35;98216.28;4970676;28;20519;-69
2021/05/23 07:14:45;;;;;;;10.55;3.95;;;;;;;15.49;54.63;98208.78;4974797;28;20065;-68
2021/05/23 07:17:10;;;;;;;9.27;4.15;;;;;;;15.48;54.77;98213.50;4981957;28;20033;-70
2021/05/23 07:19:36;;;;;;;6.10;2.92;;;;;;;15.48;54.64;98219.03;4978896;28;20448;-69
2021/05/23 07:22:01;;;;;;;9.75;3.38;;;;;;;15.55;54.94;98217.72;4980985;28;20554;-68
2021/05/23 07:24:28;;;;;;;8.70;3.60;;;;;;;15.64;55.37;98210.16;4994921;28;20035;-70
2021/05/23 07:26:53;;;;;;;11.77;4.03;;;;;;;15.72;55.29;98214.00;4974958;28;20055;-69
2021/05/23 07:29:19;;;;;;;6.95;3.05;;;;;;;15.81;54.61;98219.47;4974991;28;20062;-69
2021/05/23 07:31:44;;;;;;;10.90;3.33;;;;;;;15.88;54.16;98222.53;4974938;28;20035;-68
2021/05/23 07:34:09;;;;;;;8.63;3.30;;;;;;;15.93;54.60;98214.03;4974064;28;20041;-69
2021/05/23 07:36:35;;;;;;;8.35;3.17;;;;;;;16.00;53.98;98213.50;4975035;28;20097;-69
2021/05/23 07:39:01;;;;;;;6.00;2.58;;;;;;;15.99;53.42;98204.41;4974758;28;20539;-68
2021/05/23 07:41:27;;;;;;;8.50;2.90;;;;;;;15.96;52.91;98207.00;4974499;28;20042;-70
2021/05/23 07:43:52;;;;;;;5.55;2.70;;;;;;;16.00;53.42;98208.78;4974695;28;20469;-70
2021/05/23 07:46:17;;;;;;;8.88;2.95;;;;;;;16.04;53.24;98211.66;4974908;28;20564;-70
2021/05/23 07:48:43;;;;;;;7.57;2.78;;;;;;;16.07;53.13;98199.94;4974853;28;20027;-69
2021/05/23 07:51:08;;;;;;;8.57;3.13;;;;;;;16.11;52.89;98200.03;4975034;28;20031;-69
2021/05/23 07:53:34;;;;;;;10.77;3.08;;;;;;;16.12;53.06;98202.50;4983977;28;20027;-70
2021/05/23 07:55:59;;;;;;;8.43;3.22;;;;;;;16.12;51.99;98194.19;4984837;28;20026;-70
2021/05/23 07:58:25;;;;;;;9.27;2.80;;;;;;;16.11;52.54;98192.56;4974510;28;20118;-70
2021/05/23 08:00:50;;;;;;;9.40;3.42;;;;;;;16.14;52.39;98205.72;4988946;28;20025;-70
2021/05/23 08:03:16;;;;;;;8.38;3.03;;;;;;;16.20;52.21;98206.31;4974114;28;20023;-70
2021/05/23 08:05:42;;;;;;;7.32;3.05;;;;;;;16.25;52.80;98208.06;4974217;28;20377;-70
2021/05/23 08:08:07;;;;;;;8.60;3.75;;;;;;;16.28;52.27;98205.44;4974229;28;20034;-70
2021/05/23 08:10:33;;;;;;;8.93;3.22;;;;;;;16.29;52.88;98204.28;4974623;28;20033;-70
2021/05/23 08:12:58;;;;;;;5.80;2.92;;;;;;;16.31;52.64;98206.69;4974126;28;20385;-70
2021/05/23 08:15:24;;;;;;;9.07;3.58;;;;;;;16.39;52.95;98200.25;4974426;28;20031;-70
2021/05/23 08:17:53;;;;;;;10.43;3.70;;;;;;;16.51;53.05;98200.31;4974912;28;20026;-70
2021/05/23 08:20:19;;;;;;;8.65;3.40;;;;;;;16.57;52.63;98200.88;4974627;28;20026;-71
2021/05/23 08:22:44;;;;;;;7.70;2.70;;;;;;;16.65;52.76;98199.19;4979053;28;20047;-71
2021/05/23 08:25:10;;;;;;;7.18;3.30;;;;;;;16.68;52.45;98204.03;4979920;28;20540;-70
2021/05/23 08:27:35;;;;;;;10.10;3.45;;;;;;;16.71;52.59;98206.09;4980557;28;20026;-70
2021/05/23 08:30:01;;;;;;;8.82;2.40;;;;;;;16.70;51.94;98200.91;4981731;28;20078;-69
2021/05/23 08:32:26;;;;;;;7.63;2.70;;;;;;;16.66;51.15;98212.69;4981223;28;20050;-70
2021/05/23 08:34:52;;;;;;;7.43;2.53;;;;;;;16.61;50.66;98204.59;4981627;28;20022;-70
2021/05/23 08:37:20;;;;;;;11.98;3.47;;;;;;;16.53;50.15;98208.25;4996192;28;20047;-69
2021/05/23 08:39:46;;;;;;;8.02;3.00;;;;;;;16.51;50.93;98210.56;4974720;28;20054;-69
2021/05/23 08:42:11;;;;;;;8.52;3.17;;;;;;;16.53;51.60;98213.78;4973911;28;20085;-70
2021/05/23 08:44:37;;;;;;;7.43;2.83;;;;;;;16.60;50.93;98216.81;4989190;28;20035;-70
2021/05/23 08:47:03;;;;;;;8.70;3.28;;;;;;;16.67;51.42;98216.28;4975072;28;20029;-70
2021/05/23 08:49:30;;;;;;;9.23;3.78;;;;;;;16.79;51.93;98221.81;4976658;28;20027;-71
2021/05/23 08:51:56;;;;;;;10.77;3.30;;;;;;;16.87;51.49;98227.59;4973734;28;20038;-71
2021/05/23 08:54:21;;;;;;;7.00;2.83;;;;;;;16.91;51.20;98226.56;4972889;28;20042;-71
2021/05/23 08:56:50;;;;;;;8.48;3.53;;;;;;;16.98;51.43;98228.81;4973940;28;20019;-71
2021/05/23 08:59:16;;;;;;;8.63;3.30;;;;;;;17.04;51.36;98227.44;4973817;28;20027;-71
2021/05/23 09:01:42;;;;;;;10.38;3.67;;;;;;;17.05;50.85;98234.59;4973813;28;20027;-71
2021/05/23 09:04:13;;;;;;;10.55;3.92;;;;;;;17.07;50.81;98237.00;4972744;28;20058;-71
2021/05/23 09:06:40;;;;;;;10.77;3.55;;;;;;;17.10;50.73;98237.13;4973853;28;20540;-71
2021/05/23 09:09:08;;;;;;;9.20;3.60;;;;;;;17.16;50.51;98243.25;4973606;28;20031;-70
2021/05/23 09:11:34;;;;;;;10.98;2.75;;;;;;;17.21;50.51;98239.44;4971852;28;20051;-71
2021/05/23 09:14:00;;;;;;;7.80;2.88;;;;;;;17.20;49.28;98243.34;4973200;28;20031;-70
2021/05/23 09:16:25;;;;;;;5.15;2.53;;;;;;;17.20;49.11;98246.13;4973069;28;20484;-70
2021/05/23 09:18:52;;;;;;;5.75;2.50;;;;;;;17.21;49.50;98250.50;4973098;28;20053;-71
2021/05/23 09:21:21;;;;;;;6.88;3.50;;;;;;;17.22;49.42;98244.66;4971998;28;20035;-71
2021/05/23 09:23:58;;;;;;;10.98;5.40;;;;;;;17.26;49.53;98253.06;4973152;28;20030;-71
2021/05/23 09:26:28;;;;;;;9.07;4.57;;;;;;;17.32;49.63;98257.22;4972884;28;20022;-71
2021/05/23 09:29:01;;;;;;;9.63;3.75;;;;;;;17.32;49.30;98256.44;4971480;28;20026;-71
2021/05/23 09:31:26;;;;;;;13.75;5.20;;;;;;;17.28;48.87;98249.97;4973339;28;20042;-71
2021/05/23 09:33:53;;;;;;;6.05;3.00;;;;;;;17.24;48.49;98258.97;4964897;28;20118;-71
2021/05/23 09:36:20;;;;;;;8.32;3.35;;;;;;;17.21;48.51;98254.09;4977406;28;20027;-71
2021/05/23 09:38:52;;;;;;;10.57;4.30;;;;;;;17.18;48.68;98253.97;4973597;28;20119;-70
2021/05/23 09:41:25;;;;;;;11.32;4.60;;;;;;;17.20;48.98;98258.03;4973334;28;20037;-70
2021/05/23 09:44:07;;;;;;;10.27;4.72;;;;;;;17.20;49.04;98262.75;4985475;28;20038;-71
2021/05/23 09:46:33;;;;;;;11.75;4.95;;;;;;;17.21;48.80;98261.59;4972501;28;20038;-71
2021/05/23 09:48:58;;;;;;;7.63;3.80;;;;;;;17.19;48.57;98261.97;4973006;28;20027;-71
2021/05/23 09:51:23;;;;;;;12.98;4.07;;;;;;;17.20;48.96;98271.06;4972966;28;20035;-71
2021/05/23 09:53:58;;;;;;;13.15;4.43;;;;;;;17.21;49.45;98272.69;4972399;28;20034;-71
2021/05/23 09:56:32;;;;;;;10.20;4.25;;;;;;;17.23;49.09;98271.19;4971821;28;20038;-71
2021/05/23 09:58:58;;;;;;;11.43;4.38;;;;;;;17.23;48.74;98265.66;4969025;28;20031;-70
2021/05/23 10:01:30;;;;;;;17.40;5.15;;;;;;;17.21;49.01;98273.50;4972643;28;20049;-71
2021/05/23 10:03:57;;;;;;;51.53;23.67;;;;;;;17.20;49.29;98271.06;4971415;28;20614;-72
2021/05/23 10:06:36;;;;;;;42.20;15.15;;;;;;;17.22;49.87;98275.13;4972222;28;20515;-71
2021/05/23 10:09:02;;;;;;;16.73;5.57;;;;;;;17.21;49.21;98284.59;4971530;28;20058;-71
2021/05/23 10:11:27;;;;;;;9.70;4.03;;;;;;;17.13;48.91;98293.00;4973758;28;20030;-71
2021/05/23 10:13:53;;;;;;;30.27;12.48;;;;;;;17.05;49.50;98287.22;4972830;28;20046;-71
2021/05/23 10:16:18;;;;;;;13.82;5.60;;;;;;;17.01;49.35;98296.56;4972518;28;20031;-72
2021/05/23 10:18:45;;;;;;;36.63;14.90;;;;;;;16.96;49.68;98301.16;4972403;28;20062;-71
2021/05/23 10:21:11;;;;;;;24.75;9.50;;;;;;;16.93;49.98;98310.13;4972894;28;20152;-71
2021/05/23 10:23:43;;;;;;;11.32;5.07;;;;;;;16.94;50.45;98316.50;4978273;28;20052;-72
2021/05/23 10:26:11;;;;;;;15.23;7.45;;;;;;;16.95;50.67;98312.56;4974678;28;20145;-71
2021/05/23 10:28:42;;;;;;;11.50;5.28;;;;;;;16.99;50.96;98309.94;4981210;28;20118;-72
2021/05/23 10:31:08;;;;;;;7.18;3.60;;;;;;;17.02;50.84;98320.34;4972927;28;20114;-71
2021/05/23 10:33:33;;;;;;;9.88;3.78;;;;;;;16.98;51.07;98319.41;4972454;28;20031;-70
2021/05/23 10:35:59;;;;;;;11.55;4.28;;;;;;;16.94;51.61;98322.81;4974958;28;20085;-70
2021/05/23 10:38:26;;;;;;;12.48;4.20;;;;;;;16.92;51.30;98319.59;4972606;28;20053;-71
2021/05/23 10:41:01;;;;;;;8.57;3.13;;;;;;;16.91;51.65;98317.97;4972741;28;20089;-71
2021/05/23 10:43:29;;;;;;;9.80;3.67;;;;;;;16.91;51.30;98314.41;4972645;28;20019;-71
2021/05/23 10:46:13;;;;;;;9.98;3.80;;;;;;;16.88;51.95;98318.69;4990666;28;20112;-71
2021/05/23 10:48:50;;;;;;;7.03;3.70;;;;;;;16.87;51.73;98308.75;4979348;28;20548;-71
2021/05/23 10:51:17;;;;;;;12.57;4.70;;;;;;;16.85;52.10;98316.59;4972833;28;20027;-71
2021/05/23 10:53:44;;;;;;;9.77;5.00;;;;;;;16.85;52.00;98313.81;4975441;28;20038;-70
2021/05/23 10:56:29;;;;;;;13.57;5.05;;;;;;;16.88;52.33;98321.44;4987910;28;20041;-71
2021/05/23 10:59:02;;;;;;;11.02;4.35;;;;;;;16.88;52.25;98321.44;4974329;28;20026;-71
2021/05/23 11:01:50;;;;;;;10.25;4.70;;;;;;;16.84;52.28;98322.44;4978986;28;20014;-70
2021/05/23 11:04:17;;;;;;;9.98;4.38;;;;;;;16.87;52.49;98330.91;4992911;28;20038;-71
2021/05/23 11:06:45;;;;;;;8.98;3.88;;;;;;;16.89;52.50;98334.16;4975579;28;20086;-71
2021/05/23 11:09:16;;;;;;;7.20;3.35;;;;;;;16.83;52.44;98332.72;4975523;28;20110;-71
2021/05/23 11:11:43;;;;;;;24.35;12.90;;;;;;;16.79;52.47;98340.91;4977804;28;20346;-71
2021/05/23 11:14:21;;;;;;;13.90;7.50;;;;;;;16.76;51.90;98349.88;4993444;28;20425;-71
2021/05/23 11:16:48;;;;;;;22.27;11.68;;;;;;;16.73;52.01;98356.09;4992049;28;20023;-71
2021/05/23 11:19:14;;;;;;;12.20;5.72;;;;;;;16.74;51.62;98362.47;4992507;28;20047;-71
2021/05/23 11:21:42;;;;;;;5.63;3.05;;;;;;;16.66;50.73;98373.28;4987980;28;20035;-72
2021/05/23 11:24:08;;;;;;;8.90;3.85;;;;;;;16.57;49.89;98363.44;5008635;28;20026;-71